createdAt,value
2024-03-13T00:01:11.138Z,11.50
2024-03-13T00:03:38.260Z,11.40
2024-03-13T00:06:05.951Z,11.60
2024-03-13T00:08:32.883Z,11.60
2024-03-13T00:10:59.818Z,11.60
2024-03-13T00:13:28.965Z,11.50
2024-03-13T00:15:58.593Z,11.50
2024-03-13T00:18:25.705Z,11.60
2024-03-13T00:20:52.417Z,11.60
2024-03-13T00:23:19.602Z,11.60
2024-03-13T00:25:46.658Z,11.60
2024-03-13T00:28:13.510Z,11.60
2024-03-13T00:30:42.119Z,11.40
2024-03-13T00:33:09.547Z,11.60
2024-03-13T00:35:37.269Z,11.50
2024-03-13T00:38:04.924Z,11.60
2024-03-13T00:40:31.856Z,11.60
2024-03-13T00:42:58.976Z,11.70
2024-03-13T00:45:26.072Z,11.60
2024-03-13T00:47:55.347Z,11.60
2024-03-13T00:50:22.429Z,11.50
2024-03-13T00:52:50.092Z,11.60
2024-03-13T00:55:17.771Z,11.60
2024-03-13T00:57:44.803Z,11.60
2024-03-13T01:00:12.632Z,11.50
2024-03-13T01:02:44.129Z,11.50
2024-03-13T01:05:11.465Z,11.60
2024-03-13T01:07:38.379Z,11.60
2024-03-13T01:10:07.219Z,11.70
2024-03-13T01:12:35.819Z,11.60
2024-03-13T01:15:03.612Z,11.60
2024-03-13T01:17:30.337Z,11.60
2024-03-13T01:19:58.359Z,11.60
2024-03-13T01:22:26.155Z,11.50
2024-03-13T01:24:53.099Z,11.50
2024-03-13T01:27:21.690Z,11.50
2024-03-13T01:29:51.541Z,11.50
2024-03-13T01:32:19.330Z,11.50
2024-03-13T01:34:48.000Z,11.60
2024-03-13T01:37:33.481Z,11.50
2024-03-13T01:40:05.498Z,11.50
2024-03-13T01:42:50.945Z,11.60
2024-03-13T01:46:06.741Z,11.50
2024-03-13T01:48:56.371Z,11.50
2024-03-13T01:51:42.840Z,11.50
2024-03-13T01:54:28.731Z,11.60
2024-03-13T01:57:14.120Z,11.60
2024-03-13T02:00:10.995Z,11.50
2024-03-13T02:02:38.172Z,11.60
2024-03-13T02:05:05.210Z,11.60
2024-03-13T02:07:32.703Z,11.60
2024-03-13T02:10:01.094Z,11.60
2024-03-13T02:12:29.028Z,11.50
2024-03-13T02:14:55.706Z,11.60
2024-03-13T02:17:22.796Z,11.60
2024-03-13T02:19:51.623Z,11.60
2024-03-13T02:22:19.381Z,11.60
2024-03-13T02:24:46.784Z,11.60
2024-03-13T02:27:13.777Z,11.60
2024-03-13T02:29:42.677Z,11.60
2024-03-13T02:32:09.720Z,11.60
2024-03-13T02:34:36.509Z,11.70
2024-03-13T02:37:03.212Z,11.70
2024-03-13T02:39:30.322Z,12.00
2024-03-13T02:41:57.430Z,12.00
2024-03-13T02:44:24.265Z,12.10
2024-03-13T02:46:51.021Z,12.40
2024-03-13T02:49:17.832Z,12.40
2024-03-13T02:51:44.605Z,12.40
2024-03-13T02:54:11.664Z,12.50
2024-03-13T02:56:39.719Z,12.60
2024-03-13T02:59:07.516Z,12.50
2024-03-13T03:01:34.293Z,12.70
2024-03-13T03:04:01.174Z,12.60
2024-03-13T03:06:27.993Z,12.70
2024-03-13T03:08:54.848Z,12.70
2024-03-13T03:11:23.904Z,12.70
2024-03-13T03:13:50.656Z,12.80
2024-03-13T03:16:19.524Z,12.80
2024-03-13T03:18:46.540Z,12.90
2024-03-13T03:21:14.223Z,13.00
2024-03-13T03:23:41.125Z,12.90
2024-03-13T03:26:08.495Z,13.00
2024-03-13T03:28:35.302Z,13.00
2024-03-13T03:31:05.965Z,13.10
2024-03-13T03:33:33.187Z,13.10
2024-03-13T03:36:00.048Z,13.10
2024-03-13T03:38:29.674Z,13.10
2024-03-13T03:40:56.425Z,13.20
2024-03-13T03:43:23.212Z,13.20
2024-03-13T03:45:51.105Z,13.20
2024-03-13T03:48:17.907Z,13.40
2024-03-13T03:50:44.599Z,13.40
2024-03-13T03:53:11.356Z,13.40
2024-03-13T03:55:38.146Z,13.30
2024-03-13T03:58:07.460Z,13.60
2024-03-13T04:00:36.381Z,13.60
2024-03-13T04:03:03.542Z,13.70
2024-03-13T04:05:30.971Z,13.60
2024-03-13T04:07:57.707Z,13.70
2024-03-13T04:10:25.570Z,13.60
2024-03-13T04:12:52.403Z,13.50
2024-03-13T04:15:24.175Z,13.60
2024-03-13T04:17:51.934Z,13.60
2024-03-13T04:20:21.772Z,13.50
2024-03-13T04:22:48.862Z,13.60
2024-03-13T04:25:16.482Z,13.60
2024-03-13T04:27:44.570Z,13.70
2024-03-13T04:30:11.448Z,13.80
2024-03-13T04:32:38.348Z,13.90
2024-03-13T04:35:05.522Z,13.80
2024-03-13T04:37:32.828Z,13.90
2024-03-13T04:40:01.260Z,13.80
2024-03-13T04:42:28.665Z,14.10
2024-03-13T04:44:57.088Z,13.90
2024-03-13T04:47:24.285Z,14.10
2024-03-13T04:49:51.768Z,13.80
2024-03-13T04:52:19.384Z,13.90
2024-03-13T04:54:46.381Z,13.90
2024-03-13T04:57:13.283Z,13.80
2024-03-13T04:59:40.069Z,13.80
2024-03-13T05:02:07.180Z,13.80
2024-03-13T05:04:36.330Z,13.80
2024-03-13T05:07:03.702Z,13.70
2024-03-13T05:09:30.918Z,13.80
2024-03-13T05:11:57.730Z,13.70
2024-03-13T05:14:24.626Z,13.80
2024-03-13T05:16:52.151Z,13.90
2024-03-13T05:19:19.790Z,13.90
2024-03-13T05:21:48.657Z,14.10
2024-03-13T05:24:16.016Z,14.00
2024-03-13T05:26:43.147Z,13.80
2024-03-13T05:29:10.831Z,13.80
2024-03-13T05:31:38.052Z,14.00
2024-03-13T05:34:06.102Z,13.90
2024-03-13T05:36:33.588Z,13.90
2024-03-13T05:39:00.500Z,13.90
2024-03-13T05:41:27.426Z,13.90
2024-03-13T05:43:54.426Z,13.80
2024-03-13T05:46:22.926Z,13.80
2024-03-13T05:48:49.848Z,13.90
2024-03-13T05:51:17.552Z,14.10
2024-03-13T05:53:45.845Z,14.00
2024-03-13T05:56:12.787Z,13.90
2024-03-13T05:58:42.528Z,13.80
2024-03-13T06:01:23.629Z,13.70
2024-03-13T06:03:54.531Z,13.70
2024-03-13T06:06:24.829Z,13.60
2024-03-13T06:08:51.787Z,13.60
2024-03-13T06:11:20.147Z,13.60
2024-03-13T06:13:47.160Z,13.60
2024-03-13T06:16:16.451Z,13.50
2024-03-13T06:18:43.220Z,13.60
2024-03-13T06:21:09.943Z,13.50
2024-03-13T06:23:48.826Z,13.50
2024-03-13T06:26:19.370Z,13.50
2024-03-13T06:29:04.949Z,13.50
2024-03-13T06:31:34.091Z,13.60
2024-03-13T06:34:01.043Z,13.80
2024-03-13T06:36:28.076Z,14.00
2024-03-13T06:38:54.821Z,13.60
2024-03-13T06:41:23.401Z,13.80
2024-03-13T06:43:50.325Z,13.60
2024-03-13T06:46:17.199Z,13.60
2024-03-13T06:48:43.975Z,13.60
2024-03-13T06:51:13.589Z,13.60
2024-03-13T06:53:40.383Z,13.40
2024-03-13T06:56:07.109Z,13.80
2024-03-13T06:58:34.010Z,13.90
2024-03-13T07:01:01.219Z,13.70
2024-03-13T07:03:29.942Z,13.70
2024-03-13T07:05:56.818Z,13.80
2024-03-13T07:08:23.593Z,13.60
2024-03-13T07:10:50.488Z,13.80
2024-03-13T07:13:20.190Z,13.80
2024-03-13T07:15:47.189Z,13.60
2024-03-13T07:18:14.041Z,13.30
2024-03-13T07:20:41.882Z,13.50
2024-03-13T07:23:12.222Z,13.50
2024-03-13T07:25:39.031Z,13.60
2024-03-13T07:28:06.588Z,13.90
2024-03-13T07:30:33.384Z,13.90
2024-03-13T07:33:00.182Z,14.20
2024-03-13T07:35:27.099Z,13.80
2024-03-13T07:37:53.844Z,14.00
2024-03-13T07:40:25.207Z,14.10
2024-03-13T07:42:53.136Z,14.00
2024-03-13T07:45:19.998Z,13.80
2024-03-13T07:47:46.725Z,13.80
2024-03-13T07:50:13.618Z,14.20
2024-03-13T07:52:40.453Z,14.80
2024-03-13T07:55:07.520Z,14.30
2024-03-13T07:57:34.294Z,14.20
2024-03-13T08:00:01.157Z,13.90
2024-03-13T08:02:29.187Z,13.90
2024-03-13T08:04:56.020Z,14.00
2024-03-13T09:08:02.368Z,14.60
2024-03-13T09:10:29.657Z,14.90
2024-03-13T09:12:58.477Z,14.10
2024-03-13T09:15:25.429Z,14.40
2024-03-13T09:17:52.754Z,14.60
2024-03-13T09:20:25.792Z,14.40
2024-03-13T09:22:53.390Z,14.30
2024-03-13T09:25:20.195Z,14.50
2024-03-13T09:27:46.948Z,14.40
2024-03-13T09:30:13.944Z,14.40
2024-03-13T09:32:42.269Z,14.20
2024-03-13T09:35:10.549Z,14.40
2024-03-13T09:37:38.692Z,14.80
2024-03-13T09:40:08.591Z,14.40
2024-03-13T09:42:38.618Z,14.30
2024-03-13T09:45:15.026Z,14.00
2024-03-13T09:47:45.459Z,14.20
2024-03-13T09:50:13.244Z,14.50
2024-03-13T09:52:44.032Z,14.20
2024-03-13T09:55:13.931Z,14.20
2024-03-13T09:57:41.273Z,14.30
2024-03-13T10:00:15.444Z,14.10
2024-03-13T10:02:44.066Z,14.40
2024-03-13T10:05:12.733Z,14.20
2024-03-13T10:07:39.797Z,14.30
2024-03-13T10:10:25.298Z,14.50
2024-03-13T10:12:52.385Z,14.40
2024-03-13T10:15:19.903Z,14.60
2024-03-13T10:17:55.022Z,14.50
2024-03-13T10:20:23.978Z,14.50
2024-03-13T10:22:52.893Z,14.30
2024-03-13T10:25:20.301Z,14.80
2024-03-13T10:27:50.495Z,14.50
2024-03-13T10:30:17.798Z,14.40
2024-03-13T10:32:44.862Z,14.40
2024-03-13T10:35:11.751Z,14.50
2024-03-13T10:37:40.065Z,14.60
2024-03-13T10:40:07.485Z,14.60
2024-03-13T10:42:35.063Z,14.50
2024-03-13T10:45:01.832Z,14.80
2024-03-13T10:47:31.641Z,14.80
2024-03-13T10:49:58.658Z,14.70
2024-03-13T10:52:25.402Z,14.80
2024-03-13T10:54:52.461Z,14.60
2024-03-13T10:57:19.960Z,14.70
2024-03-13T10:59:50.555Z,14.60
2024-03-13T11:02:17.473Z,14.60
2024-03-13T11:04:45.883Z,14.60
2024-03-13T11:07:13.806Z,14.80
2024-03-13T11:09:43.304Z,14.80
2024-03-13T11:12:22.882Z,14.80
2024-03-13T11:14:54.098Z,14.90
2024-03-13T11:17:24.430Z,14.70
2024-03-13T11:20:00.036Z,14.80
2024-03-13T11:22:32.313Z,14.80
2024-03-13T11:25:02.099Z,14.60
2024-03-13T11:27:29.322Z,14.70
2024-03-13T11:29:56.934Z,14.50
2024-03-13T11:32:25.463Z,14.60
2024-03-13T11:34:52.617Z,14.70
2024-03-13T11:37:22.285Z,14.60
2024-03-13T11:39:50.180Z,14.70
2024-03-13T11:42:21.855Z,14.70
2024-03-13T11:44:51.774Z,14.90
2024-03-13T11:47:24.204Z,14.80
2024-03-13T11:50:00.335Z,14.80
2024-03-13T11:52:27.254Z,14.90
2024-03-13T11:54:57.727Z,15.30
2024-03-13T11:57:25.729Z,15.10
2024-03-13T11:59:54.701Z,15.10
2024-03-13T12:02:33.502Z,15.00
2024-03-13T12:05:07.876Z,15.10
2024-03-13T12:07:37.839Z,15.00
2024-03-13T12:10:05.022Z,15.60
2024-03-13T12:12:32.428Z,15.20
2024-03-13T12:14:59.306Z,15.60
2024-03-13T12:17:26.054Z,15.40
2024-03-13T12:19:52.955Z,15.90
2024-03-13T12:22:21.187Z,15.40
2024-03-13T12:24:50.131Z,15.20
2024-03-13T12:27:18.625Z,15.50
2024-03-13T12:29:45.660Z,15.50
2024-03-13T12:32:14.434Z,15.40
2024-03-13T12:34:45.002Z,15.40
2024-03-13T12:37:17.797Z,15.20
2024-03-13T12:39:47.352Z,15.40
2024-03-13T12:42:14.635Z,15.70
2024-03-13T12:44:41.449Z,15.60
2024-03-13T12:47:13.720Z,15.50
2024-03-13T12:49:42.263Z,15.50
2024-03-13T12:52:10.909Z,15.60
2024-03-13T12:54:37.734Z,15.50
2024-03-13T12:57:05.973Z,15.40
2024-03-13T12:59:32.729Z,15.40
2024-03-13T13:01:59.709Z,15.50
2024-03-13T13:04:27.061Z,15.60
2024-03-13T13:06:54.114Z,15.90
2024-03-13T13:09:23.591Z,15.70
2024-03-13T13:11:50.524Z,15.40
2024-03-13T13:14:17.314Z,15.40
2024-03-13T13:16:44.379Z,15.50
2024-03-13T13:19:12.346Z,15.40
2024-03-13T13:21:39.308Z,15.60
2024-03-13T13:24:07.222Z,15.30
2024-03-13T13:26:34.242Z,15.40
2024-03-13T13:31:31.887Z,15.40
2024-03-13T13:33:58.750Z,15.30
2024-03-13T13:36:25.723Z,15.20
2024-03-13T13:38:52.613Z,15.20
2024-03-13T13:41:21.715Z,15.40
2024-03-13T13:43:48.589Z,15.40
2024-03-13T13:46:16.463Z,15.20
2024-03-13T13:48:43.482Z,15.20
2024-03-13T13:51:11.510Z,15.20
2024-03-13T13:53:38.336Z,15.30
2024-03-13T13:56:05.946Z,15.40
2024-03-13T13:58:33.768Z,15.30
2024-03-13T14:01:01.050Z,15.50
2024-03-13T14:03:28.809Z,15.60
2024-03-13T14:05:55.960Z,15.50
2024-03-13T14:08:22.784Z,15.50
2024-03-13T14:10:58.424Z,15.40
2024-03-13T14:13:27.477Z,15.30
2024-03-13T14:15:54.322Z,15.50
2024-03-13T14:18:21.191Z,15.40
2024-03-13T14:20:51.128Z,15.50
2024-03-13T14:23:18.578Z,15.60
2024-03-13T14:25:45.519Z,15.40
2024-03-13T14:28:16.238Z,15.50
2024-03-13T14:30:43.055Z,15.50
2024-03-13T14:33:09.899Z,15.60
2024-03-13T14:35:37.646Z,15.60
2024-03-13T14:38:04.656Z,15.80
2024-03-13T14:40:31.352Z,15.80
2024-03-13T14:42:58.227Z,15.50
2024-03-13T14:45:25.138Z,16.00
2024-03-13T14:47:52.568Z,15.60
2024-03-13T14:50:21.250Z,15.60
2024-03-13T14:52:59.386Z,15.60
2024-03-13T14:55:31.789Z,15.70
2024-03-13T14:57:58.739Z,16.00
2024-03-13T15:00:27.168Z,16.10
2024-03-13T15:02:54.511Z,15.60
2024-03-13T15:05:21.524Z,15.60
2024-03-13T15:07:48.475Z,15.60
2024-03-13T15:10:16.807Z,15.50
2024-03-13T15:12:45.417Z,15.60
2024-03-13T15:15:13.362Z,15.50
2024-03-13T15:17:43.879Z,15.60
2024-03-13T15:20:14.225Z,15.70
2024-03-13T15:22:41.536Z,15.80
2024-03-13T15:25:10.984Z,15.80
2024-03-13T15:27:39.953Z,15.80
2024-03-13T15:30:08.087Z,15.90
2024-03-13T15:32:35.869Z,15.80
2024-03-13T15:35:07.225Z,15.80
2024-03-13T15:37:34.927Z,15.80
2024-03-13T15:40:07.687Z,15.80
2024-03-13T15:42:35.427Z,15.70
2024-03-13T15:45:02.294Z,15.60
2024-03-13T15:47:30.163Z,15.60
2024-03-13T15:49:56.959Z,15.60
2024-03-13T15:52:24.127Z,15.80
2024-03-13T15:54:51.373Z,15.70
2024-03-13T15:57:19.218Z,15.90
2024-03-13T15:59:45.993Z,15.70
2024-03-13T16:02:13.804Z,15.80
2024-03-13T16:04:40.592Z,15.60
2024-03-13T16:07:08.540Z,15.50
2024-03-13T16:09:35.545Z,15.50
2024-03-13T16:12:04.414Z,15.40
2024-03-13T16:14:34.108Z,15.40
2024-03-13T16:17:00.930Z,15.40
2024-03-13T16:19:27.700Z,15.30
2024-03-13T16:21:54.414Z,15.40
2024-03-13T16:24:21.480Z,15.40
2024-03-13T16:26:48.419Z,15.50
2024-03-13T16:29:15.486Z,15.60
2024-03-13T16:31:42.601Z,15.70
2024-03-13T16:34:10.381Z,15.70
2024-03-13T16:36:37.154Z,15.60
2024-03-13T16:39:07.891Z,15.50
2024-03-13T16:41:38.825Z,15.50
2024-03-13T16:44:08.423Z,15.40
2024-03-13T16:46:35.131Z,15.30
2024-03-13T16:49:03.968Z,15.40
2024-03-13T16:51:40.467Z,15.40
2024-03-13T16:54:07.336Z,15.50
2024-03-13T16:56:34.070Z,15.40
2024-03-13T16:59:01.889Z,15.40
2024-03-13T17:01:28.670Z,15.50
2024-03-13T17:03:55.479Z,15.70
2024-03-13T17:06:23.229Z,15.90
2024-03-13T17:08:50.116Z,15.70
2024-03-13T17:11:16.975Z,15.60
2024-03-13T17:13:45.668Z,15.60
2024-03-13T17:16:12.440Z,15.50
2024-03-13T17:18:39.330Z,15.60
2024-03-13T17:21:11.688Z,15.40
2024-03-13T17:23:39.317Z,15.40
2024-03-13T17:26:08.364Z,15.30
2024-03-13T17:28:35.172Z,15.30
2024-03-13T17:31:02.296Z,15.30
2024-03-13T17:33:29.104Z,15.20
2024-03-13T17:35:55.890Z,15.10
2024-03-13T17:38:22.637Z,15.20
2024-03-13T17:40:51.528Z,15.20
2024-03-13T17:43:19.434Z,15.10
2024-03-13T17:45:46.324Z,15.00
2024-03-13T17:48:13.223Z,15.20
2024-03-13T17:50:41.282Z,15.10
2024-03-13T17:53:08.649Z,15.20
2024-03-13T17:55:35.346Z,15.10
2024-03-13T17:58:02.108Z,15.10
2024-03-13T18:00:29.117Z,15.00
2024-03-13T18:02:57.312Z,15.10
2024-03-13T18:05:25.880Z,15.00
2024-03-13T18:07:53.567Z,15.00
2024-03-13T18:10:24.595Z,15.00
2024-03-13T18:12:51.613Z,15.00
2024-03-13T18:15:18.906Z,14.90
2024-03-13T18:17:45.893Z,15.00
2024-03-13T18:20:13.999Z,15.00
2024-03-13T18:22:43.935Z,15.00
2024-03-13T18:25:11.125Z,15.00
2024-03-13T18:27:38.609Z,14.70
2024-03-13T18:30:09.261Z,14.70
2024-03-13T18:32:43.852Z,14.70
2024-03-13T18:35:12.301Z,14.80
2024-03-13T18:37:39.444Z,14.70
2024-03-13T18:40:13.631Z,14.80
2024-03-13T18:42:41.087Z,14.70
2024-03-13T18:45:12.110Z,14.60
2024-03-13T18:47:39.472Z,14.60
2024-03-13T18:50:09.724Z,14.50
2024-03-13T18:52:36.588Z,14.60
2024-03-13T18:55:05.031Z,14.50
2024-03-13T18:57:32.605Z,14.40
2024-03-13T18:59:59.553Z,14.50
2024-03-13T19:02:27.410Z,14.30
2024-03-13T19:05:00.001Z,14.40
2024-03-13T19:07:29.907Z,14.30
2024-03-13T19:09:57.493Z,14.30
2024-03-13T19:12:24.416Z,14.20
2024-03-13T19:14:51.377Z,14.20
2024-03-13T19:17:18.099Z,14.20
2024-03-13T19:19:45.990Z,14.10
2024-03-13T19:22:12.779Z,14.10
2024-03-13T19:24:40.718Z,14.00
2024-03-13T19:27:09.629Z,14.00
2024-03-13T19:29:36.456Z,14.00
2024-03-13T19:32:03.350Z,14.00
2024-03-13T19:34:30.427Z,13.90
2024-03-13T19:36:57.247Z,14.20
2024-03-13T19:39:24.784Z,14.40
2024-03-13T19:41:51.731Z,14.00
2024-03-13T19:44:19.553Z,13.90
2024-03-13T19:46:46.424Z,13.90
2024-03-13T19:49:13.289Z,13.90
2024-03-13T19:51:40.065Z,13.70
2024-03-13T19:54:11.203Z,13.70
2024-03-13T19:56:38.469Z,13.80
2024-03-13T19:59:05.228Z,13.60
2024-03-13T20:01:32.197Z,13.70
2024-03-13T20:03:59.038Z,13.60
2024-03-13T20:06:25.958Z,13.70
2024-03-13T20:08:52.795Z,13.60
2024-03-13T20:11:19.642Z,13.60
2024-03-13T20:13:47.401Z,13.50
2024-03-13T20:16:14.766Z,13.50
2024-03-13T20:18:41.718Z,13.80
2024-03-13T20:21:08.881Z,13.70
2024-03-13T20:23:36.106Z,13.60
2024-03-13T20:26:02.908Z,13.60
2024-03-13T20:28:30.683Z,13.80
2024-03-13T20:30:57.490Z,13.70
2024-03-13T20:33:24.277Z,13.70
2024-03-13T20:35:51.068Z,13.60
2024-03-13T20:38:17.924Z,14.00
2024-03-13T20:40:44.619Z,14.40
2024-03-13T20:43:11.374Z,14.00
2024-03-13T20:45:38.838Z,13.90
2024-03-13T20:48:06.463Z,13.90
2024-03-13T20:50:33.242Z,13.90
2024-03-13T20:52:59.980Z,13.80
2024-03-13T20:55:30.509Z,13.80
2024-03-13T20:57:58.302Z,14.00
2024-03-13T21:00:29.262Z,13.70
2024-03-13T21:03:01.948Z,13.80
2024-03-13T21:05:28.820Z,13.70
2024-03-13T21:07:55.565Z,14.00
2024-03-13T21:10:22.318Z,13.70
2024-03-13T21:12:50.208Z,13.70
2024-03-13T21:15:17.126Z,13.70
2024-03-13T21:17:44.332Z,13.60
2024-03-13T21:20:15.175Z,13.90
2024-03-13T21:22:42.031Z,13.80
2024-03-13T21:25:09.377Z,13.80
2024-03-13T21:27:36.315Z,13.90
2024-03-13T21:30:05.091Z,13.80
2024-03-13T21:32:31.958Z,13.80
2024-03-13T21:34:59.229Z,14.10
2024-03-13T21:37:27.993Z,14.00
2024-03-13T21:39:54.811Z,14.00
2024-03-13T21:42:21.635Z,13.80
2024-03-13T21:44:48.463Z,13.80
2024-03-13T21:47:15.266Z,14.10
2024-03-13T21:49:42.037Z,14.00
2024-03-13T21:52:08.832Z,14.00
2024-03-13T21:54:35.811Z,13.90
2024-03-13T21:57:06.185Z,14.10
2024-03-13T21:59:33.085Z,14.10
2024-03-13T22:02:00.449Z,14.20
2024-03-13T22:04:27.205Z,14.20
2024-03-13T22:06:53.942Z,14.20
2024-03-13T22:09:21.493Z,14.20
2024-03-13T22:11:48.305Z,14.30
2024-03-13T22:14:15.104Z,14.10
2024-03-13T22:16:41.823Z,14.20
2024-03-13T22:19:08.674Z,14.30
2024-03-13T22:21:35.456Z,14.40
2024-03-13T22:24:02.378Z,14.20
2024-03-13T22:26:29.198Z,14.20
2024-03-13T22:28:56.952Z,14.30
2024-03-13T22:31:23.715Z,14.30
2024-03-13T22:33:50.555Z,14.40
2024-03-13T22:36:17.333Z,14.30
2024-03-13T22:38:44.308Z,14.30
2024-03-13T22:41:11.145Z,14.20
2024-03-13T22:43:38.046Z,14.30
2024-03-13T22:46:10.665Z,14.20
2024-03-13T22:48:38.543Z,14.20
2024-03-13T22:51:05.625Z,14.10
2024-03-13T22:53:32.360Z,14.20
2024-03-13T22:55:59.130Z,14.20
2024-03-13T22:58:25.881Z,14.20
2024-03-13T23:01:02.390Z,14.20
2024-03-13T23:03:30.555Z,14.30
2024-03-13T23:05:57.740Z,14.30
2024-03-13T23:08:24.671Z,14.40
2024-03-13T23:10:51.617Z,14.40
2024-03-13T23:13:22.238Z,14.40
2024-03-13T23:15:50.466Z,14.30
2024-03-13T23:18:17.427Z,14.30
2024-03-13T23:20:46.004Z,14.30
2024-03-13T23:23:12.909Z,14.20
2024-03-13T23:25:39.981Z,14.20
2024-03-13T23:28:07.582Z,14.20
2024-03-13T23:30:34.472Z,14.20
2024-03-13T23:33:01.785Z,14.10
2024-03-13T23:35:30.932Z,14.10
2024-03-13T23:37:58.621Z,14.20
2024-03-13T23:40:25.721Z,14.00
2024-03-13T23:42:54.111Z,14.10
2024-03-13T23:45:26.566Z,14.00
2024-03-13T23:47:54.630Z,14.10
2024-03-13T23:50:22.958Z,14.20
2024-03-13T23:52:50.371Z,14.10
2024-03-13T23:55:17.604Z,14.10
2024-03-13T23:57:44.461Z,14.10
